createdAt,value
2017-09-11T00:00:03.603Z,979.54
2017-09-11T00:01:03.627Z,979.63
2017-09-11T00:02:03.757Z,979.52
2017-09-11T00:03:03.504Z,979.59
2017-09-11T00:04:02.885Z,979.57
2017-09-11T00:05:03.643Z,979.56
2017-09-11T00:06:03.253Z,979.47
2017-09-11T00:07:03.058Z,979.53
2017-09-11T00:08:02.997Z,979.51
2017-09-11T00:09:03.038Z,979.47
2017-09-11T00:10:03.115Z,979.48
2017-09-11T00:11:03.111Z,979.48
2017-09-11T00:12:02.389Z,979.51
2017-09-11T00:13:02.410Z,979.48
2017-09-11T00:14:02.331Z,979.47
2017-09-11T00:15:02.346Z,979.45
2017-09-11T00:16:02.373Z,979.43
2017-09-11T00:17:03.705Z,979.43
2017-09-11T00:18:02.956Z,979.44
2017-09-11T00:19:03.654Z,979.43
2017-09-11T00:20:03.698Z,979.48
2017-09-11T00:21:02.946Z,979.49
2017-09-11T00:22:03.030Z,979.40
2017-09-11T00:23:02.992Z,979.47
2017-09-11T00:24:03.140Z,979.52
2017-09-11T00:25:03.021Z,979.53
2017-09-11T00:26:02.397Z,979.49
2017-09-11T00:27:02.385Z,979.52
2017-09-11T00:28:02.390Z,979.51
2017-09-11T00:29:02.394Z,979.51
2017-09-11T00:30:02.530Z,979.46
2017-09-11T00:31:02.421Z,979.48
2017-09-11T00:32:02.381Z,979.48
2017-09-11T00:33:03.600Z,979.47
2017-09-11T00:34:03.696Z,979.46
2017-09-11T00:35:03.067Z,979.52
2017-09-11T00:36:03.014Z,979.50
2017-09-11T00:37:03.089Z,979.36
2017-09-11T00:38:03.136Z,979.44
2017-09-11T00:39:03.152Z,979.35
2017-09-11T00:40:03.029Z,979.38
2017-09-11T00:41:02.426Z,979.42
2017-09-11T00:42:02.474Z,979.40
2017-09-11T00:43:02.507Z,979.29
2017-09-11T00:44:02.442Z,979.26
2017-09-11T00:45:02.417Z,979.19
2017-09-11T00:46:02.495Z,979.28
2017-09-11T00:47:02.498Z,979.25
2017-09-11T00:48:02.476Z,979.27
2017-09-11T00:49:03.785Z,979.32
2017-09-11T00:50:03.793Z,979.22
2017-09-11T00:51:03.189Z,979.29
2017-09-11T00:52:03.174Z,979.23
2017-09-11T00:53:03.226Z,979.22
2017-09-11T00:54:03.054Z,979.23
2017-09-11T00:55:03.113Z,979.24
2017-09-11T00:56:03.144Z,979.18
2017-09-11T00:57:02.474Z,979.16
2017-09-11T00:58:02.533Z,979.21
2017-09-11T00:59:02.498Z,979.16
2017-09-11T01:00:02.551Z,979.16
2017-09-11T01:03:17.304Z,979.08
2017-09-11T01:03:18.434Z,979.06
2017-09-11T01:03:19.454Z,979.14
2017-09-11T01:05:52.342Z,979.12
2017-09-11T01:05:53.595Z,979.08
2017-09-11T01:06:02.589Z,979.08
2017-09-11T01:08:34.437Z,979.01
2017-09-11T01:08:35.665Z,979.08
2017-09-11T01:09:02.564Z,979.09
2017-09-11T01:11:47.929Z,979.02
2017-09-11T01:11:49.161Z,979.01
2017-09-11T01:14:33.996Z,979.01
2017-09-11T01:14:35.016Z,979.00
2017-09-11T01:14:36.367Z,979.00
2017-09-11T01:15:02.582Z,979.07
2017-09-11T01:17:48.298Z,979.05
2017-09-11T01:17:49.316Z,978.96
2017-09-11T01:18:02.619Z,979.06
2017-09-11T01:21:20.542Z,979.01
2017-09-11T01:21:21.766Z,979.01
2017-09-11T01:21:22.783Z,979.04
2017-09-11T01:22:02.609Z,978.98
2017-09-11T01:23:03.770Z,978.98
2017-09-11T01:24:03.139Z,978.96
2017-09-11T01:27:05.521Z,979.04
2017-09-11T01:27:06.646Z,978.95
2017-09-11T01:27:07.664Z,978.91
2017-09-11T01:29:47.881Z,978.94
2017-09-11T01:29:49.099Z,978.93
2017-09-11T01:30:02.570Z,978.87
2017-09-11T01:32:34.214Z,978.83
2017-09-11T01:32:35.337Z,978.90
2017-09-11T01:33:02.644Z,978.92
2017-09-11T01:35:46.111Z,978.93
2017-09-11T01:35:47.336Z,978.87
2017-09-11T01:38:31.637Z,978.90
2017-09-11T01:38:32.554Z,978.91
2017-09-11T01:38:33.887Z,978.82
2017-09-11T01:39:02.701Z,978.85
2017-09-11T01:41:44.987Z,978.86
2017-09-11T01:41:46.212Z,978.88
2017-09-11T01:42:02.711Z,978.86
2017-09-11T01:45:10.118Z,978.87
2017-09-11T01:45:11.344Z,978.82
2017-09-11T01:45:12.458Z,978.87
2017-09-11T01:47:52.190Z,978.77
2017-09-11T01:47:53.318Z,978.82
2017-09-11T01:50:31.376Z,978.81
2017-09-11T01:50:32.390Z,978.73
2017-09-11T01:50:33.820Z,978.81
2017-09-11T01:51:02.699Z,978.78
2017-09-11T01:53:49.748Z,978.77
2017-09-11T01:53:50.989Z,978.71
2017-09-11T01:56:32.530Z,978.75
2017-09-11T01:56:33.453Z,978.72
2017-09-11T01:56:34.793Z,978.78
2017-09-11T01:57:02.642Z,978.71
2017-09-11T01:59:51.145Z,978.71
2017-09-11T01:59:52.368Z,978.70
2017-09-11T02:00:02.752Z,978.75
2017-09-11T02:01:03.321Z,978.72
2017-09-11T02:02:03.340Z,978.72
2017-09-11T02:03:03.340Z,978.68
2017-09-11T02:04:03.378Z,978.66
2017-09-11T02:05:03.292Z,978.64
2017-09-11T02:06:03.314Z,978.62
2017-09-11T02:07:03.934Z,978.52
2017-09-11T02:08:04.077Z,978.57
2017-09-11T02:09:03.977Z,978.58
2017-09-11T02:10:04.032Z,978.56
2017-09-11T02:11:04.058Z,978.61
2017-09-11T02:12:03.413Z,978.61
2017-09-11T02:13:04.029Z,978.63
2017-09-11T02:14:03.347Z,978.59
2017-09-11T02:15:03.372Z,978.62
2017-09-11T02:16:03.378Z,978.59
2017-09-11T02:17:03.464Z,978.55
2017-09-11T02:18:03.415Z,978.54
2017-09-11T02:19:02.759Z,978.54
2017-09-11T02:20:02.850Z,978.52
2017-09-11T02:21:02.872Z,978.50
2017-09-11T02:22:02.797Z,978.46
2017-09-11T02:23:02.731Z,978.53
2017-09-11T02:24:02.924Z,978.42
2017-09-11T02:25:02.810Z,978.48
2017-09-11T02:26:04.022Z,978.38
2017-09-11T02:27:04.037Z,978.43
2017-09-11T02:28:03.437Z,978.41
2017-09-11T02:29:03.507Z,978.39
2017-09-11T02:30:03.558Z,978.43
2017-09-11T02:31:03.412Z,978.34
2017-09-11T02:32:03.426Z,978.28
2017-09-11T02:33:03.486Z,978.33
2017-09-11T02:34:03.469Z,978.33
2017-09-11T02:35:02.784Z,978.32
2017-09-11T02:36:02.825Z,978.31
2017-09-11T02:37:02.800Z,978.31
2017-09-11T02:38:02.849Z,978.27
2017-09-11T02:39:02.810Z,978.31
2017-09-11T02:40:02.819Z,978.31
2017-09-11T02:41:02.880Z,978.33
2017-09-11T02:42:02.814Z,978.33
2017-09-11T02:43:04.024Z,978.33
2017-09-11T02:44:04.060Z,978.34
2017-09-11T02:45:03.556Z,978.33
2017-09-11T02:46:04.232Z,978.28
2017-09-11T02:47:03.457Z,978.31
2017-09-11T02:48:03.505Z,978.41
2017-09-11T02:49:03.516Z,978.37
2017-09-11T02:50:03.531Z,978.41
2017-09-11T02:51:02.834Z,978.42
2017-09-11T02:52:02.862Z,978.36
2017-09-11T02:53:02.877Z,978.39
2017-09-11T02:54:02.935Z,978.40
2017-09-11T02:55:02.869Z,978.41
2017-09-11T02:56:02.961Z,978.38
2017-09-11T02:57:02.864Z,978.33
2017-09-11T02:58:04.264Z,978.32
2017-09-11T02:59:04.255Z,978.42
2017-09-11T03:00:03.607Z,978.37
2017-09-11T03:01:03.507Z,978.38
2017-09-11T03:02:03.555Z,978.35
2017-09-11T03:03:03.563Z,978.32
2017-09-11T03:04:03.567Z,978.31
2017-09-11T03:05:03.639Z,978.34
2017-09-11T03:06:03.634Z,978.28
2017-09-11T03:07:02.965Z,978.28
2017-09-11T03:08:02.934Z,978.23
2017-09-11T03:09:02.959Z,978.19
2017-09-11T03:10:02.980Z,978.23
2017-09-11T03:11:02.901Z,978.26
2017-09-11T03:12:02.912Z,978.26
2017-09-11T03:13:02.993Z,978.17
2017-09-11T03:14:02.907Z,978.19
2017-09-11T03:15:04.168Z,978.29
2017-09-11T03:16:03.664Z,978.25
2017-09-11T03:17:03.530Z,978.23
2017-09-11T03:18:03.600Z,978.27
2017-09-11T03:19:03.579Z,978.25
2017-09-11T03:20:03.575Z,978.28
2017-09-11T03:21:03.819Z,978.31
2017-09-11T03:22:02.965Z,978.28
2017-09-11T03:23:02.961Z,978.26
2017-09-11T03:24:02.972Z,978.25
2017-09-11T03:25:03.804Z,978.23
2017-09-11T03:26:02.947Z,978.18
2017-09-11T03:26:45.051Z,978.18
2017-09-11T03:28:56.811Z,978.16
2017-09-11T03:28:58.042Z,978.11
2017-09-11T03:29:02.977Z,978.19
2017-09-11T03:30:04.468Z,978.14
2017-09-11T03:31:04.307Z,978.13
2017-09-11T03:32:04.246Z,978.07
2017-09-11T03:33:04.263Z,978.10
2017-09-11T03:34:03.618Z,978.13
2017-09-11T03:35:03.721Z,978.10
2017-09-11T03:36:03.762Z,978.02
2017-09-11T03:37:03.643Z,978.05
2017-09-11T03:38:03.917Z,978.04
2017-09-11T03:39:03.054Z,977.94
2017-09-11T03:40:03.094Z,977.92
2017-09-11T03:41:03.087Z,977.93
2017-09-11T03:42:03.096Z,977.94
2017-09-11T03:43:03.136Z,977.98
2017-09-11T03:44:03.109Z,977.98
2017-09-11T03:45:03.031Z,977.93
2017-09-11T03:46:04.354Z,977.93
2017-09-11T03:47:04.350Z,977.90
2017-09-11T03:48:04.344Z,977.98
2017-09-11T03:49:04.315Z,977.95
2017-09-11T03:50:03.799Z,977.97
2017-09-11T03:51:03.778Z,977.87
2017-09-11T03:52:04.039Z,977.88
2017-09-11T03:53:03.685Z,977.88
2017-09-11T03:54:03.796Z,977.81
2017-09-11T03:55:03.104Z,977.79
2017-09-11T03:56:03.095Z,977.86
2017-09-11T03:57:03.102Z,977.82
2017-09-11T03:58:03.081Z,977.78
2017-09-11T03:59:03.075Z,977.78
2017-09-11T04:00:03.225Z,977.71
2017-09-11T04:01:03.127Z,977.72
2017-09-11T04:02:03.105Z,977.72
2017-09-11T04:03:03.109Z,977.73
2017-09-11T04:04:04.459Z,977.72
2017-09-11T04:05:03.780Z,977.71
2017-09-11T04:06:03.822Z,977.63
2017-09-11T04:07:03.773Z,977.66
2017-09-11T04:08:03.933Z,977.63
2017-09-11T04:09:03.726Z,977.67
2017-09-11T04:10:04.008Z,977.56
2017-09-11T04:11:03.908Z,977.62
2017-09-11T04:12:03.180Z,977.60
2017-09-11T04:13:03.153Z,977.64
2017-09-11T04:14:03.107Z,977.64
2017-09-11T04:15:03.143Z,977.63
2017-09-11T04:16:03.144Z,977.60
2017-09-11T04:17:03.132Z,977.53
2017-09-11T04:18:03.952Z,977.59
2017-09-11T04:19:04.567Z,977.51
2017-09-11T04:20:03.963Z,977.51
2017-09-11T04:21:03.916Z,977.46
2017-09-11T04:22:03.891Z,977.41
2017-09-11T04:23:03.799Z,977.42
2017-09-11T04:24:03.896Z,977.36
2017-09-11T04:25:03.756Z,977.41
2017-09-11T04:26:05.698Z,977.37
2017-09-11T04:27:03.195Z,977.29
2017-09-11T04:28:03.913Z,977.32
2017-09-11T04:29:03.832Z,977.39
2017-09-11T04:30:04.063Z,977.28
2017-09-11T04:31:03.776Z,977.31
2017-09-11T04:32:04.420Z,977.26
2017-09-11T04:33:04.436Z,977.29
2017-09-11T04:34:04.435Z,977.15
2017-09-11T04:35:04.058Z,977.22
2017-09-11T04:36:04.548Z,977.19
2017-09-11T04:37:04.744Z,977.25
2017-09-11T04:38:04.013Z,977.21
2017-09-11T04:39:04.064Z,977.27
2017-09-11T04:40:03.949Z,977.25
2017-09-11T04:41:04.082Z,977.25
2017-09-11T04:42:03.941Z,977.27
2017-09-11T04:43:04.013Z,977.23
2017-09-11T04:44:03.295Z,977.32
2017-09-11T04:45:03.316Z,977.21
2017-09-11T04:46:03.328Z,977.26
2017-09-11T04:47:03.243Z,977.28
2017-09-11T04:48:03.266Z,977.26
2017-09-11T04:49:03.285Z,977.24
2017-09-11T04:50:03.427Z,977.20
2017-09-11T04:51:03.228Z,977.27
2017-09-11T04:52:04.614Z,977.30
2017-09-11T04:53:04.556Z,977.30
2017-09-11T04:54:03.976Z,977.26
2017-09-11T04:55:04.090Z,977.22
2017-09-11T04:56:03.937Z,977.14
2017-09-11T04:57:04.049Z,977.21
2017-09-11T04:58:04.024Z,977.18
2017-09-11T04:59:03.259Z,977.14
2017-09-11T05:00:03.976Z,977.13
2017-09-11T05:01:03.304Z,977.14
2017-09-11T05:02:03.355Z,977.17
2017-09-11T05:03:03.368Z,977.07
2017-09-11T05:04:03.371Z,977.03
2017-09-11T05:05:03.310Z,977.03
2017-09-11T05:06:03.387Z,977.10
2017-09-11T05:07:03.427Z,976.97
2017-09-11T05:08:03.403Z,977.07
2017-09-11T05:09:03.351Z,976.99
2017-09-11T05:10:04.713Z,977.02
2017-09-11T05:11:04.738Z,977.03
2017-09-11T05:12:04.429Z,977.08
2017-09-11T05:13:04.088Z,977.02
2017-09-11T05:14:04.117Z,977.01
2017-09-11T05:15:03.952Z,976.97
2017-09-11T05:16:04.016Z,976.92
2017-09-11T05:17:03.417Z,976.88
2017-09-11T05:18:03.406Z,976.96
2017-09-11T05:19:03.420Z,976.89
2017-09-11T05:20:03.476Z,976.85
2017-09-11T05:21:03.525Z,976.84
2017-09-11T05:22:03.465Z,976.81
2017-09-11T05:23:03.378Z,976.83
2017-09-11T05:24:04.690Z,976.78
2017-09-11T05:25:04.677Z,976.72
2017-09-11T05:26:04.875Z,976.79
2017-09-11T05:27:04.644Z,976.82
2017-09-11T05:28:04.087Z,976.76
2017-09-11T05:29:04.123Z,976.66
2017-09-11T05:30:04.199Z,976.64
2017-09-11T05:31:04.086Z,976.61
2017-09-11T05:32:04.059Z,976.54
2017-09-11T05:33:03.404Z,976.54
2017-09-11T05:34:03.485Z,976.47
2017-09-11T05:35:03.503Z,976.45
2017-09-11T05:36:03.445Z,976.45
2017-09-11T05:37:03.576Z,976.49
2017-09-11T05:38:03.457Z,976.47
2017-09-11T05:39:04.510Z,976.49
2017-09-11T05:40:05.529Z,976.44
2017-09-11T05:41:03.481Z,976.44
2017-09-11T05:42:04.899Z,976.51
2017-09-11T05:43:04.719Z,976.45
2017-09-11T05:44:04.306Z,976.46
2017-09-11T05:45:04.026Z,976.39
2017-09-11T05:46:04.597Z,976.36
2017-09-11T05:47:04.176Z,976.41
2017-09-11T05:48:04.106Z,976.40
2017-09-11T05:49:04.132Z,976.42
2017-09-11T05:50:04.219Z,976.42
2017-09-11T05:51:03.451Z,976.41
2017-09-11T05:52:03.595Z,976.44
2017-09-11T05:53:03.370Z,976.44
2017-09-11T05:54:03.452Z,976.43
2017-09-11T05:55:03.843Z,976.43
2017-09-11T05:56:03.443Z,976.50
2017-09-11T05:57:05.013Z,976.48
2017-09-11T05:58:04.788Z,976.45
2017-09-11T05:59:04.215Z,976.46
2017-09-11T06:00:04.239Z,976.49
2017-09-11T06:01:04.226Z,976.54
2017-09-11T06:02:04.274Z,976.47
2017-09-11T06:03:04.218Z,976.46
2017-09-11T06:04:04.167Z,976.53
2017-09-11T06:05:04.250Z,976.48
2017-09-11T06:06:04.415Z,976.49
2017-09-11T06:07:03.655Z,976.47
2017-09-11T06:08:03.494Z,976.50
2017-09-11T06:09:03.585Z,976.49
2017-09-11T06:10:04.657Z,976.55
2017-09-11T06:11:03.681Z,976.51
2017-09-11T06:12:03.547Z,976.46
2017-09-11T06:13:05.121Z,976.41
2017-09-11T06:14:04.870Z,976.47
2017-09-11T06:15:04.494Z,976.50
2017-09-11T11:47:03.385Z,976.95
2017-09-11T11:47:04.510Z,976.95
2017-09-11T11:48:05.122Z,976.92
2017-09-11T11:49:05.289Z,976.91
2017-09-11T11:50:06.175Z,976.92
2017-09-11T11:51:05.976Z,976.97
2017-09-11T11:52:05.498Z,976.94
2017-09-11T11:53:04.688Z,976.93
2017-09-11T11:54:04.800Z,977.00
2017-09-11T11:55:04.830Z,976.98
2017-09-11T11:56:04.697Z,976.97
2017-09-11T11:57:04.798Z,976.97
2017-09-11T11:58:04.750Z,976.84
2017-09-11T11:59:06.061Z,976.86
2017-09-11T12:00:05.438Z,976.86
2017-09-11T12:01:05.295Z,976.95
2017-09-11T12:02:05.351Z,976.82
2017-09-11T12:03:06.099Z,976.86
2017-09-11T12:04:05.667Z,976.87
2017-09-11T12:05:05.501Z,976.90
2017-09-11T12:06:05.477Z,976.84
2017-09-11T12:07:05.390Z,976.86
2017-09-11T12:08:04.747Z,976.84
2017-09-11T12:09:05.612Z,976.84
2017-09-11T12:10:04.702Z,976.89
2017-09-11T12:11:04.813Z,976.91
2017-09-11T12:12:04.883Z,976.92
2017-09-11T12:13:04.768Z,976.85
2017-09-11T12:14:04.782Z,976.87
2017-09-11T12:15:05.740Z,976.88
2017-09-11T12:16:05.385Z,976.95
2017-09-11T12:17:05.237Z,977.01
2017-09-11T12:18:05.424Z,976.88
2017-09-11T12:19:05.376Z,976.96
2017-09-11T12:20:05.378Z,976.84
2017-09-11T12:21:05.385Z,976.92
2017-09-11T12:22:05.394Z,976.85
2017-09-11T12:23:04.810Z,976.82
2017-09-11T12:24:04.868Z,976.89
2017-09-11T12:25:04.785Z,976.86
2017-09-11T12:26:04.808Z,976.84
2017-09-11T12:27:04.748Z,976.76
2017-09-11T12:28:04.722Z,976.72
2017-09-11T12:29:04.838Z,976.73
2017-09-11T12:30:04.793Z,976.64
2017-09-11T12:31:06.291Z,976.67
2017-09-11T12:32:05.617Z,976.76
2017-09-11T12:33:05.368Z,976.75
2017-09-11T12:34:05.387Z,976.67
2017-09-11T12:35:06.173Z,976.69
2017-09-11T12:36:05.609Z,976.72
2017-09-11T12:37:05.585Z,976.79
2017-09-11T12:38:05.415Z,976.78
2017-09-11T12:39:04.836Z,976.72
2017-09-11T12:40:05.567Z,976.76
2017-09-11T12:41:04.847Z,976.72
2017-09-11T12:42:04.867Z,976.68
2017-09-11T12:43:04.884Z,976.72
2017-09-11T12:44:05.150Z,976.78
2017-09-11T12:45:04.892Z,976.78
2017-09-11T12:46:04.957Z,976.78
2017-09-11T12:47:04.910Z,976.80
2017-09-11T12:48:05.020Z,976.83
2017-09-11T12:49:04.976Z,976.72
2017-09-11T12:50:04.984Z,976.74
2017-09-11T12:51:06.126Z,976.77
2017-09-11T12:52:05.494Z,976.71
2017-09-11T12:53:05.683Z,976.71
2017-09-11T12:54:05.901Z,976.74
2017-09-11T12:55:05.597Z,976.68
2017-09-11T12:56:04.853Z,976.73
2017-09-11T12:57:04.886Z,976.70
2017-09-11T12:58:05.020Z,976.63
2017-09-11T12:59:05.025Z,976.65
2017-09-11T13:00:04.927Z,976.67
2017-09-11T13:01:05.063Z,976.65
2017-09-11T13:02:04.873Z,976.59
2017-09-11T13:03:04.897Z,976.51
2017-09-11T13:04:06.295Z,976.59
2017-09-11T13:05:05.544Z,976.66
2017-09-11T13:06:05.748Z,976.63
2017-09-11T13:07:05.501Z,976.64
2017-09-11T13:08:07.626Z,976.64
2017-09-11T13:09:05.109Z,976.58
2017-09-11T13:10:05.554Z,976.61
2017-09-11T13:11:06.349Z,976.56
2017-09-11T13:12:05.665Z,976.55
2017-09-11T13:13:04.957Z,976.48
2017-09-11T13:14:05.070Z,976.53
2017-09-11T13:15:04.987Z,976.52
2017-09-11T13:16:05.022Z,976.65
2017-09-11T13:17:04.950Z,976.61
2017-09-11T13:18:05.006Z,976.63
2017-09-11T13:19:04.958Z,976.46
2017-09-11T13:20:06.305Z,976.51
2017-09-11T13:21:06.669Z,976.50
2017-09-11T13:22:06.319Z,976.44
2017-09-11T13:23:06.223Z,976.42
2017-09-11T13:24:06.329Z,976.30
2017-09-11T13:25:05.619Z,976.38
2017-09-11T13:26:05.583Z,976.41
2017-09-11T13:27:05.588Z,976.50
2017-09-11T13:28:05.925Z,976.51
2017-09-11T13:29:05.022Z,976.52
2017-09-11T13:30:06.040Z,976.51
2017-09-11T13:31:05.134Z,976.54
2017-09-11T13:32:05.008Z,976.49
2017-09-11T13:33:05.043Z,976.55
2017-09-11T13:34:05.063Z,976.56
2017-09-11T13:35:05.031Z,976.55
2017-09-11T13:36:05.159Z,976.53
2017-09-11T13:37:05.056Z,976.58
2017-09-11T13:38:06.292Z,976.52
2017-09-11T13:39:06.311Z,976.54
2017-09-11T13:40:05.745Z,976.42
2017-09-11T13:41:05.789Z,976.44
2017-09-11T13:42:06.208Z,976.42
2017-09-11T13:43:05.657Z,976.55
2017-09-11T13:44:05.751Z,976.47
2017-09-11T13:45:05.030Z,976.43
2017-09-11T13:46:05.905Z,976.45
2017-09-11T13:47:05.045Z,976.46
2017-09-11T13:48:05.063Z,976.54
2017-09-11T13:49:05.061Z,976.49
2017-09-11T13:50:05.024Z,976.57
2017-09-11T13:51:05.056Z,976.53
2017-09-11T13:52:05.113Z,976.61
2017-09-11T13:53:05.054Z,976.57
2017-09-11T13:54:06.311Z,976.51
2017-09-11T13:55:06.449Z,976.60
2017-09-11T13:56:06.297Z,976.59
2017-09-11T13:57:06.511Z,976.46
2017-09-11T13:58:05.798Z,976.52
2017-09-11T13:59:05.656Z,976.46
2017-09-11T14:00:06.484Z,976.50
2017-09-11T14:01:05.805Z,976.43
2017-09-11T14:02:05.741Z,976.41
2017-09-11T14:03:05.104Z,976.38
2017-09-11T14:04:05.231Z,976.34
2017-09-11T14:05:05.142Z,976.35
2017-09-11T14:06:06.122Z,976.43
2017-09-11T14:07:05.256Z,976.31
2017-09-11T14:08:05.180Z,976.23
2017-09-11T14:09:05.297Z,976.32
2017-09-11T14:10:05.245Z,976.25
2017-09-11T14:11:05.238Z,976.27
2017-09-11T14:12:05.292Z,976.37
2017-09-11T14:13:05.241Z,976.27
2017-09-11T14:14:06.547Z,976.35
2017-09-11T14:15:07.001Z,976.30
2017-09-11T14:16:05.915Z,976.26
2017-09-11T14:17:06.042Z,976.19
2017-09-11T14:18:06.013Z,976.28
2017-09-11T14:19:05.831Z,976.25
2017-09-11T14:20:05.213Z,976.26
2017-09-11T14:21:07.449Z,976.29
2017-09-11T14:22:07.260Z,976.19
2017-09-11T14:23:07.267Z,976.17
2017-09-11T14:24:06.055Z,976.19
2017-09-11T14:25:06.031Z,976.24
2017-09-11T14:26:05.231Z,976.19
2017-09-11T14:27:06.407Z,976.31
2017-09-11T14:28:06.414Z,976.24
2017-09-11T14:29:05.874Z,976.26
2017-09-11T14:30:06.474Z,976.23
2017-09-11T14:31:05.923Z,976.33
2017-09-11T14:32:05.863Z,976.30
2017-09-11T14:33:05.929Z,976.30
2017-09-11T14:34:05.830Z,976.34
2017-09-11T14:35:05.863Z,976.28
2017-09-11T14:36:05.240Z,976.29
2017-09-11T14:37:05.288Z,976.27
2017-09-11T14:38:05.184Z,976.16
2017-09-11T14:39:05.276Z,976.28
2017-09-11T14:40:05.369Z,976.27
2017-09-11T14:41:05.259Z,976.14
2017-09-11T14:42:05.228Z,976.12
2017-09-11T14:43:06.414Z,976.15
2017-09-11T14:44:06.476Z,976.26
2017-09-11T14:45:06.478Z,976.30
2017-09-11T14:46:05.982Z,976.23
2017-09-11T14:47:06.067Z,976.27
2017-09-11T14:48:05.944Z,976.34
2017-09-11T14:49:05.915Z,976.26
2017-09-11T14:50:06.059Z,976.30
2017-09-11T14:51:05.990Z,976.26
2017-09-11T14:52:05.996Z,976.34
2017-09-11T14:53:06.099Z,976.27
2017-09-11T14:54:06.192Z,976.24
2017-09-11T14:55:05.318Z,976.23
2017-09-11T14:56:05.427Z,976.22
2017-09-11T14:57:05.362Z,976.34
2017-09-11T14:58:05.451Z,976.22
2017-09-11T14:59:05.292Z,976.19
2017-09-11T15:00:06.774Z,976.15
2017-09-11T15:01:06.401Z,976.17
2017-09-11T15:02:05.992Z,976.13
2017-09-11T15:03:06.337Z,976.12
2017-09-11T15:04:06.631Z,976.18
2017-09-11T15:05:06.048Z,976.14
2017-09-11T15:06:06.060Z,976.09
2017-09-11T15:07:06.240Z,976.04
2017-09-11T15:08:05.925Z,976.07
2017-09-11T15:09:06.138Z,976.03
2017-09-11T15:10:05.313Z,976.18
2017-09-11T15:11:05.369Z,976.11
2017-09-11T15:12:05.434Z,976.14
2017-09-11T15:13:07.027Z,976.10
2017-09-11T15:14:05.474Z,976.16
2017-09-11T15:15:05.511Z,976.12
2017-09-11T15:16:05.421Z,976.19
2017-09-11T15:17:05.437Z,976.14
2017-09-11T15:18:05.408Z,976.24
2017-09-11T15:19:06.686Z,976.27
2017-09-11T15:20:06.625Z,976.27
2017-09-11T15:21:06.049Z,976.24
2017-09-11T15:22:06.001Z,976.31
2017-09-11T15:23:06.114Z,976.28
2017-09-11T15:24:06.090Z,976.24
2017-09-11T15:25:06.013Z,976.24
2017-09-11T15:26:05.409Z,976.28
2017-09-11T15:27:05.388Z,976.31
2017-09-11T15:28:05.462Z,976.32
2017-09-11T15:29:05.542Z,976.34
2017-09-11T15:30:05.423Z,976.33
2017-09-11T15:31:05.509Z,976.33
2017-09-11T15:32:05.462Z,976.30
2017-09-11T15:33:05.399Z,976.33
2017-09-11T15:34:06.749Z,976.35
2017-09-11T15:35:06.139Z,976.35
2017-09-11T15:36:06.757Z,976.37
2017-09-11T15:37:06.154Z,976.40
2017-09-11T15:38:06.101Z,976.37
2017-09-11T15:39:06.080Z,976.43
2017-09-11T15:40:06.355Z,976.30
2017-09-11T15:41:06.257Z,976.38
2017-09-11T15:42:05.414Z,976.31
2017-09-11T15:43:05.384Z,976.44
2017-09-11T15:44:06.181Z,976.40
2017-09-11T15:45:06.399Z,976.32
2017-09-11T15:46:05.490Z,976.36
2017-09-11T15:47:05.616Z,976.46
2017-09-11T15:48:05.450Z,976.43
2017-09-11T15:49:05.600Z,976.42
2017-09-11T15:50:05.427Z,976.46
2017-09-11T15:51:06.833Z,976.40
2017-09-11T15:52:06.054Z,976.43
2017-09-11T15:53:06.173Z,976.38
2017-09-11T15:54:06.274Z,976.47
2017-09-11T15:55:06.275Z,976.45
2017-09-11T15:56:06.320Z,976.40
2017-09-11T15:57:06.348Z,976.48
2017-09-11T15:58:06.307Z,976.47
2017-09-11T15:59:05.460Z,976.49
2017-09-11T16:00:05.504Z,976.45
2017-09-11T16:01:05.460Z,976.46
2017-09-11T16:02:05.503Z,976.43
2017-09-11T16:03:05.576Z,976.40
2017-09-11T16:04:05.656Z,976.35
2017-09-11T16:05:05.521Z,976.39
2017-09-11T16:06:05.493Z,976.35
2017-09-11T16:07:05.666Z,976.38
2017-09-11T16:08:05.559Z,976.43
2017-09-11T16:09:07.095Z,976.39
2017-09-11T16:10:06.891Z,976.37
2017-09-11T16:11:06.229Z,976.44
2017-09-11T16:12:06.106Z,976.43
2017-09-11T16:13:06.251Z,976.42
2017-09-11T16:14:06.274Z,976.36
2017-09-11T16:15:06.130Z,976.38
2017-09-11T16:16:06.330Z,976.39
2017-09-11T16:17:06.219Z,976.44
2017-09-11T16:18:06.775Z,976.39
2017-09-11T16:19:05.589Z,976.40
2017-09-11T16:20:06.620Z,976.34
2017-09-11T16:21:05.853Z,976.32
2017-09-11T16:22:05.649Z,976.31
2017-09-11T16:23:06.644Z,976.20
2017-09-11T16:24:05.842Z,976.28
2017-09-11T16:25:05.682Z,976.36
2017-09-11T16:26:05.626Z,976.30
2017-09-11T16:27:06.552Z,976.33
2017-09-11T16:28:06.545Z,976.33
2017-09-11T16:29:06.597Z,976.26
2017-09-11T16:30:06.717Z,976.31
2017-09-11T16:31:06.514Z,976.32
2017-09-11T16:32:06.418Z,976.26
2017-09-11T16:33:06.840Z,976.26
2017-09-11T16:34:05.607Z,976.25
2017-09-11T16:35:06.821Z,976.27
2017-09-11T16:36:06.567Z,976.21
2017-09-11T16:37:05.780Z,976.21
2017-09-11T16:38:05.652Z,976.17
2017-09-11T16:39:05.950Z,976.20
2017-09-11T16:40:05.750Z,976.26
2017-09-11T16:41:05.846Z,976.25
2017-09-11T16:42:05.788Z,976.20
2017-09-11T16:43:05.754Z,976.20
2017-09-11T16:44:07.136Z,976.22
2017-09-11T16:45:06.472Z,976.20
2017-09-11T16:46:06.717Z,976.24
2017-09-11T16:47:06.391Z,976.27
2017-09-11T16:48:06.384Z,976.27
2017-09-11T16:49:06.359Z,976.33
2017-09-11T16:50:06.465Z,976.29
2017-09-11T16:51:05.737Z,976.34
2017-09-11T16:52:05.767Z,976.31
2017-09-11T16:53:05.755Z,976.22
2017-09-11T16:54:05.826Z,976.21
2017-09-11T16:55:05.706Z,976.26
2017-09-11T16:56:05.733Z,976.22
2017-09-11T16:57:05.689Z,976.21
2017-09-11T16:58:05.738Z,976.20
2017-09-11T16:59:06.918Z,976.23
2017-09-11T17:00:07.111Z,976.22
2017-09-11T17:01:06.400Z,976.30
2017-09-11T17:02:06.331Z,976.20
2017-09-11T17:03:06.347Z,976.22
2017-09-11T17:04:06.344Z,976.27
2017-09-11T17:05:06.347Z,976.30
2017-09-11T17:06:06.543Z,976.33
2017-09-11T17:07:06.803Z,976.31
2017-09-11T17:08:05.780Z,976.43
2017-09-11T17:09:05.825Z,976.36
2017-09-11T17:10:05.885Z,976.45
2017-09-11T17:11:05.779Z,976.51
2017-09-11T17:12:05.735Z,976.40
2017-09-11T17:13:05.852Z,976.44
2017-09-11T17:14:05.796Z,976.44
2017-09-11T17:15:05.721Z,976.44
2017-09-11T17:16:07.075Z,976.45
2017-09-11T17:17:06.450Z,976.52
2017-09-11T17:18:06.423Z,976.51
2017-09-11T17:19:06.529Z,976.54
2017-09-11T17:20:07.120Z,976.59
2017-09-11T17:21:06.334Z,976.54
2017-09-11T17:22:06.494Z,976.52
2017-09-11T17:23:06.409Z,976.60
2017-09-11T17:24:06.649Z,976.55
2017-09-11T17:25:05.797Z,976.40
2017-09-11T17:26:05.930Z,976.57
2017-09-11T17:27:05.946Z,976.54
2017-09-11T17:28:05.940Z,976.48
2017-09-11T17:29:05.909Z,976.52
2017-09-11T17:30:05.825Z,976.55
2017-09-11T17:31:05.860Z,976.58
2017-09-11T17:32:07.153Z,976.53
2017-09-11T17:33:07.170Z,976.63
2017-09-11T17:34:06.373Z,976.63
2017-09-11T17:35:06.442Z,976.66
2017-09-11T17:36:07.150Z,976.66
2017-09-11T17:37:06.532Z,976.67
2017-09-11T17:38:06.525Z,976.71
2017-09-11T17:39:05.805Z,976.67
2017-09-11T17:40:06.598Z,976.76
2017-09-11T17:41:06.594Z,976.73
2017-09-11T17:42:05.881Z,976.76
2017-09-11T17:43:05.831Z,976.75
2017-09-11T17:44:05.876Z,976.83
2017-09-11T17:45:05.855Z,976.78
2017-09-11T17:46:05.934Z,976.82
2017-09-11T17:47:16.930Z,976.88
2017-09-11T17:48:05.874Z,976.90
2017-09-11T17:49:07.084Z,976.89
2017-09-11T17:50:06.550Z,976.99
2017-09-11T17:51:06.601Z,976.93
2017-09-11T17:52:06.622Z,977.01
2017-09-11T17:53:06.615Z,977.11
2017-09-11T17:54:06.484Z,977.15
2017-09-11T17:55:06.560Z,977.07
2017-09-11T17:56:06.591Z,977.06
2017-09-11T17:57:05.925Z,977.09